sensor_id;sensor_type;location;lat;lon;timestamp;temperature;humidity
25877;DHT22;13692;47.480;19.216;2023-07-08T00:00:53;19.20;99.90
25877;DHT22;13692;47.480;19.216;2023-07-08T00:03:20;19.10;99.90
25877;DHT22;13692;47.480;19.216;2023-07-08T00:05:49;19.10;99.90
25877;DHT22;13692;47.480;19.216;2023-07-08T00:08:20;19.10;99.90
25877;DHT22;13692;47.480;19.216;2023-07-08T00:10:48;19.00;99.90
25877;DHT22;13692;47.480;19.216;2023-07-08T00:13:15;19.00;99.90
25877;DHT22;13692;47.480;19.216;2023-07-08T00:15:42;18.90;99.90
25877;DHT22;13692;47.480;19.216;2023-07-08T00:18:13;18.90;99.90
25877;DHT22;13692;47.480;19.216;2023-07-08T00:20:46;18.80;99.90
25877;DHT22;13692;47.480;19.216;2023-07-08T00:23:13;18.80;99.90
25877;DHT22;13692;47.480;19.216;2023-07-08T00:25:41;18.70;99.90
25877;DHT22;13692;47.480;19.216;2023-07-08T00:28:17;18.60;99.90
25877;DHT22;13692;47.480;19.216;2023-07-08T00:30:44;18.50;99.90
25877;DHT22;13692;47.480;19.216;2023-07-08T00:33:11;18.40;99.90
25877;DHT22;13692;47.480;19.216;2023-07-08T00:35:43;18.40;99.90
25877;DHT22;13692;47.480;19.216;2023-07-08T00:38:26;18.30;99.90
25877;DHT22;13692;47.480;19.216;2023-07-08T00:43:59;18.30;99.90
25877;DHT22;13692;47.480;19.216;2023-07-08T00:49:26;18.30;99.90
25877;DHT22;13692;47.480;19.216;2023-07-08T00:51:55;18.20;99.90
25877;DHT22;13692;47.480;19.216;2023-07-08T00:54:22;18.10;99.90
25877;DHT22;13692;47.480;19.216;2023-07-08T00:56:56;18.10;99.90
25877;DHT22;13692;47.480;19.216;2023-07-08T00:59:41;18.10;99.90
25877;DHT22;13692;47.480;19.216;2023-07-08T01:02:12;18.10;99.90
25877;DHT22;13692;47.480;19.216;2023-07-08T01:04:53;18.00;99.90
25877;DHT22;13692;47.480;19.216;2023-07-08T01:07:24;17.90;99.90
25877;DHT22;13692;47.480;19.216;2023-07-08T01:09:57;17.90;99.90
25877;DHT22;13692;47.480;19.216;2023-07-08T01:12:37;17.90;99.90
25877;DHT22;13692;47.480;19.216;2023-07-08T01:15:06;17.90;99.90
25877;DHT22;13692;47.480;19.216;2023-07-08T01:17:33;17.80;99.90
25877;DHT22;13692;47.480;19.216;2023-07-08T01:20:01;17.80;99.90
25877;DHT22;13692;47.480;19.216;2023-07-08T01:22:35;17.70;99.90
25877;DHT22;13692;47.480;19.216;2023-07-08T01:25:03;17.70;99.90
25877;DHT22;13692;47.480;19.216;2023-07-08T01:27:34;17.70;99.90
25877;DHT22;13692;47.480;19.216;2023-07-08T01:30:04;17.70;99.90
25877;DHT22;13692;47.480;19.216;2023-07-08T01:32:34;17.70;99.90
25877;DHT22;13692;47.480;19.216;2023-07-08T01:35:04;17.70;99.90
25877;DHT22;13692;47.480;19.216;2023-07-08T01:37:36;17.70;99.90
25877;DHT22;13692;47.480;19.216;2023-07-08T01:40:33;17.60;99.90
25877;DHT22;13692;47.480;19.216;2023-07-08T01:43:01;17.60;99.90
25877;DHT22;13692;47.480;19.216;2023-07-08T01:45:33;17.40;99.90
25877;DHT22;13692;47.480;19.216;2023-07-08T01:48:07;17.40;99.90
25877;DHT22;13692;47.480;19.216;2023-07-08T01:50:39;17.30;99.90
25877;DHT22;13692;47.480;19.216;2023-07-08T01:53:19;17.40;99.90
25877;DHT22;13692;47.480;19.216;2023-07-08T01:55:47;17.40;99.90
25877;DHT22;13692;47.480;19.216;2023-07-08T01:58:14;17.40;99.90
25877;DHT22;13692;47.480;19.216;2023-07-08T02:00:41;17.40;99.90
25877;DHT22;13692;47.480;19.216;2023-07-08T02:03:10;17.40;99.90
25877;DHT22;13692;47.480;19.216;2023-07-08T02:05:36;17.30;99.90
25877;DHT22;13692;47.480;19.216;2023-07-08T02:08:04;17.20;99.90
25877;DHT22;13692;47.480;19.216;2023-07-08T02:10:31;17.10;99.90
25877;DHT22;13692;47.480;19.216;2023-07-08T02:12:58;17.10;99.90
25877;DHT22;13692;47.480;19.216;2023-07-08T02:15:26;17.10;99.90
25877;DHT22;13692;47.480;19.216;2023-07-08T02:17:53;17.10;99.90
25877;DHT22;13692;47.480;19.216;2023-07-08T02:20:21;17.10;99.90
25877;DHT22;13692;47.480;19.216;2023-07-08T02:22:48;17.20;99.90
25877;DHT22;13692;47.480;19.216;2023-07-08T02:25:15;17.10;99.90
25877;DHT22;13692;47.480;19.216;2023-07-08T02:27:42;17.10;99.90
25877;DHT22;13692;47.480;19.216;2023-07-08T02:30:10;17.00;99.90
25877;DHT22;13692;47.480;19.216;2023-07-08T02:32:37;17.40;99.90
25877;DHT22;13692;47.480;19.216;2023-07-08T02:35:07;17.00;99.90
25877;DHT22;13692;47.480;19.216;2023-07-08T02:37:34;17.00;99.90
25877;DHT22;13692;47.480;19.216;2023-07-08T02:40:01;16.90;99.90
25877;DHT22;13692;47.480;19.216;2023-07-08T02:42:29;16.90;99.90
25877;DHT22;13692;47.480;19.216;2023-07-08T02:44:56;16.90;99.90
25877;DHT22;13692;47.480;19.216;2023-07-08T02:47:23;16.90;99.90
25877;DHT22;13692;47.480;19.216;2023-07-08T02:49:50;16.90;99.90
25877;DHT22;13692;47.480;19.216;2023-07-08T02:52:17;16.90;99.90
25877;DHT22;13692;47.480;19.216;2023-07-08T02:54:44;16.80;99.90
25877;DHT22;13692;47.480;19.216;2023-07-08T02:57:11;16.80;99.90
25877;DHT22;13692;47.480;19.216;2023-07-08T02:59:38;16.80;99.90
25877;DHT22;13692;47.480;19.216;2023-07-08T03:02:05;16.80;99.90
25877;DHT22;13692;47.480;19.216;2023-07-08T03:04:32;16.80;99.90
25877;DHT22;13692;47.480;19.216;2023-07-08T03:07:02;16.80;99.90
25877;DHT22;13692;47.480;19.216;2023-07-08T03:09:30;16.90;99.90
25877;DHT22;13692;47.480;19.216;2023-07-08T03:11:59;16.80;99.90
25877;DHT22;13692;47.480;19.216;2023-07-08T03:14:27;16.80;99.90
25877;DHT22;13692;47.480;19.216;2023-07-08T03:16:54;16.80;99.90
25877;DHT22;13692;47.480;19.216;2023-07-08T03:19:21;16.90;99.90
25877;DHT22;13692;47.480;19.216;2023-07-08T03:21:48;16.90;99.90
25877;DHT22;13692;47.480;19.216;2023-07-08T03:24:15;17.00;99.90
25877;DHT22;13692;47.480;19.216;2023-07-08T03:26:45;17.00;99.90
25877;DHT22;13692;47.480;19.216;2023-07-08T03:29:16;17.00;99.90
25877;DHT22;13692;47.480;19.216;2023-07-08T03:31:45;17.00;99.90
25877;DHT22;13692;47.480;19.216;2023-07-08T03:34:13;17.00;99.90
25877;DHT22;13692;47.480;19.216;2023-07-08T03:36:51;16.90;99.90
25877;DHT22;13692;47.480;19.216;2023-07-08T03:39:23;17.00;99.90
25877;DHT22;13692;47.480;19.216;2023-07-08T03:41:51;17.00;99.90
25877;DHT22;13692;47.480;19.216;2023-07-08T03:44:19;17.10;99.90
25877;DHT22;13692;47.480;19.216;2023-07-08T03:46:47;17.20;99.90
25877;DHT22;13692;47.480;19.216;2023-07-08T03:49:20;17.20;99.90
25877;DHT22;13692;47.480;19.216;2023-07-08T03:51:50;17.20;99.90
25877;DHT22;13692;47.480;19.216;2023-07-08T03:54:19;17.20;99.90
25877;DHT22;13692;47.480;19.216;2023-07-08T03:56:46;17.40;99.90
25877;DHT22;13692;47.480;19.216;2023-07-08T03:59:15;17.80;99.90
25877;DHT22;13692;47.480;19.216;2023-07-08T04:01:42;18.30;99.90
25877;DHT22;13692;47.480;19.216;2023-07-08T04:04:12;18.70;99.90
25877;DHT22;13692;47.480;19.216;2023-07-08T04:06:39;18.90;99.90
25877;DHT22;13692;47.480;19.216;2023-07-08T04:09:06;19.10;99.90
25877;DHT22;13692;47.480;19.216;2023-07-08T04:11:34;19.40;99.90
25877;DHT22;13692;47.480;19.216;2023-07-08T04:14:01;19.90;99.90
25877;DHT22;13692;47.480;19.216;2023-07-08T04:16:35;20.30;99.90
25877;DHT22;13692;47.480;19.216;2023-07-08T04:19:04;20.30;99.90
25877;DHT22;13692;47.480;19.216;2023-07-08T04:21:31;20.30;99.90
25877;DHT22;13692;47.480;19.216;2023-07-08T04:23:58;20.20;99.90
25877;DHT22;13692;47.480;19.216;2023-07-08T04:26:25;20.40;99.90
25877;DHT22;13692;47.480;19.216;2023-07-08T04:28:52;20.80;99.90
25877;DHT22;13692;47.480;19.216;2023-07-08T04:31:19;21.30;99.90
25877;DHT22;13692;47.480;19.216;2023-07-08T04:33:46;21.60;99.90
25877;DHT22;13692;47.480;19.216;2023-07-08T04:36:13;22.10;99.90
25877;DHT22;13692;47.480;19.216;2023-07-08T04:38:41;22.50;99.90
25877;DHT22;13692;47.480;19.216;2023-07-08T04:41:08;22.90;99.90
25877;DHT22;13692;47.480;19.216;2023-07-08T04:43:35;23.20;99.90
25877;DHT22;13692;47.480;19.216;2023-07-08T04:46:03;23.40;99.90
25877;DHT22;13692;47.480;19.216;2023-07-08T04:48:31;23.80;99.90
25877;DHT22;13692;47.480;19.216;2023-07-08T04:50:59;24.00;99.90
25877;DHT22;13692;47.480;19.216;2023-07-08T04:53:26;24.20;99.90
25877;DHT22;13692;47.480;19.216;2023-07-08T04:55:55;24.50;99.90
25877;DHT22;13692;47.480;19.216;2023-07-08T04:58:23;24.70;99.90
25877;DHT22;13692;47.480;19.216;2023-07-08T05:00:49;25.00;99.90
25877;DHT22;13692;47.480;19.216;2023-07-08T05:03:16;25.50;99.90
25877;DHT22;13692;47.480;19.216;2023-07-08T05:05:43;25.70;99.90
25877;DHT22;13692;47.480;19.216;2023-07-08T05:08:12;25.60;99.90
25877;DHT22;13692;47.480;19.216;2023-07-08T05:10:39;25.60;99.90
25877;DHT22;13692;47.480;19.216;2023-07-08T05:13:06;25.70;99.90
25877;DHT22;13692;47.480;19.216;2023-07-08T05:15:33;25.40;99.90
25877;DHT22;13692;47.480;19.216;2023-07-08T05:18:02;25.70;99.90
25877;DHT22;13692;47.480;19.216;2023-07-08T05:20:29;25.90;99.90
25877;DHT22;13692;47.480;19.216;2023-07-08T05:22:57;26.10;99.90
25877;DHT22;13692;47.480;19.216;2023-07-08T05:25:24;26.50;99.90
25877;DHT22;13692;47.480;19.216;2023-07-08T05:27:51;27.20;99.90
25877;DHT22;13692;47.480;19.216;2023-07-08T05:30:18;27.60;99.90
25877;DHT22;13692;47.480;19.216;2023-07-08T05:32:45;27.90;99.90
25877;DHT22;13692;47.480;19.216;2023-07-08T05:35:13;28.40;99.10
25877;DHT22;13692;47.480;19.216;2023-07-08T05:37:40;28.70;98.90
25877;DHT22;13692;47.480;19.216;2023-07-08T05:40:08;29.20;98.30
25877;DHT22;13692;47.480;19.216;2023-07-08T05:42:35;29.50;97.20
25877;DHT22;13692;47.480;19.216;2023-07-08T05:45:04;29.70;96.20
25877;DHT22;13692;47.480;19.216;2023-07-08T05:47:33;29.90;95.70
25877;DHT22;13692;47.480;19.216;2023-07-08T05:50:01;30.00;95.00
25877;DHT22;13692;47.480;19.216;2023-07-08T05:52:28;30.20;94.10
25877;DHT22;13692;47.480;19.216;2023-07-08T05:54:55;30.30;94.20
25877;DHT22;13692;47.480;19.216;2023-07-08T05:57:22;30.40;93.80
25877;DHT22;13692;47.480;19.216;2023-07-08T05:59:50;30.80;93.30
25877;DHT22;13692;47.480;19.216;2023-07-08T06:02:17;30.70;92.60
25877;DHT22;13692;47.480;19.216;2023-07-08T06:04:46;30.00;93.20
25877;DHT22;13692;47.480;19.216;2023-07-08T06:07:13;29.60;93.30
25877;DHT22;13692;47.480;19.216;2023-07-08T06:09:40;29.20;94.10
25877;DHT22;13692;47.480;19.216;2023-07-08T06:12:07;28.50;94.90
25877;DHT22;13692;47.480;19.216;2023-07-08T06:14:34;28.10;95.30
25877;DHT22;13692;47.480;19.216;2023-07-08T06:17:01;28.10;95.00
25877;DHT22;13692;47.480;19.216;2023-07-08T06:19:28;27.90;95.40
25877;DHT22;13692;47.480;19.216;2023-07-08T06:21:55;28.20;95.90
25877;DHT22;13692;47.480;19.216;2023-07-08T06:24:42;28.40;95.30
25877;DHT22;13692;47.480;19.216;2023-07-08T06:27:09;28.20;95.50
25877;DHT22;13692;47.480;19.216;2023-07-08T06:29:36;28.80;95.20
25877;DHT22;13692;47.480;19.216;2023-07-08T06:32:04;29.10;94.00
25877;DHT22;13692;47.480;19.216;2023-07-08T06:34:31;29.20;94.00
25877;DHT22;13692;47.480;19.216;2023-07-08T06:36:58;29.10;94.00
25877;DHT22;13692;47.480;19.216;2023-07-08T06:39:25;29.40;93.50
25877;DHT22;13692;47.480;19.216;2023-07-08T06:41:52;28.90;93.30
25877;DHT22;13692;47.480;19.216;2023-07-08T06:44:18;29.10;93.50
25877;DHT22;13692;47.480;19.216;2023-07-08T06:46:45;28.90;93.50
25877;DHT22;13692;47.480;19.216;2023-07-08T06:49:12;28.90;93.70
25877;DHT22;13692;47.480;19.216;2023-07-08T06:51:39;28.50;94.30
25877;DHT22;13692;47.480;19.216;2023-07-08T06:54:06;29.00;93.50
25877;DHT22;13692;47.480;19.216;2023-07-08T06:56:39;29.70;92.40
25877;DHT22;13692;47.480;19.216;2023-07-08T06:59:09;30.10;91.30
25877;DHT22;13692;47.480;19.216;2023-07-08T07:01:36;30.00;91.20
25877;DHT22;13692;47.480;19.216;2023-07-08T07:04:04;30.40;91.20
25877;DHT22;13692;47.480;19.216;2023-07-08T07:06:31;30.20;90.80
25877;DHT22;13692;47.480;19.216;2023-07-08T07:08:58;30.00;90.80
25877;DHT22;13692;47.480;19.216;2023-07-08T07:11:25;30.00;91.20
25877;DHT22;13692;47.480;19.216;2023-07-08T07:13:52;30.50;90.30
25877;DHT22;13692;47.480;19.216;2023-07-08T07:16:19;30.90;90.50
25877;DHT22;13692;47.480;19.216;2023-07-08T07:18:46;31.30;88.50
25877;DHT22;13692;47.480;19.216;2023-07-08T07:21:13;31.70;87.30
25877;DHT22;13692;47.480;19.216;2023-07-08T07:23:40;31.90;84.90
25877;DHT22;13692;47.480;19.216;2023-07-08T07:26:07;31.90;80.50
25877;DHT22;13692;47.480;19.216;2023-07-08T07:28:34;31.80;80.30
25877;DHT22;13692;47.480;19.216;2023-07-08T07:31:03;32.10;80.70
25877;DHT22;13692;47.480;19.216;2023-07-08T07:33:33;32.40;80.00
25877;DHT22;13692;47.480;19.216;2023-07-08T07:36:00;32.60;79.60
25877;DHT22;13692;47.480;19.216;2023-07-08T07:38:28;32.80;75.10
25877;DHT22;13692;47.480;19.216;2023-07-08T07:40:56;32.40;71.30
25877;DHT22;13692;47.480;19.216;2023-07-08T07:43:23;32.10;73.80
25877;DHT22;13692;47.480;19.216;2023-07-08T07:45:52;32.10;72.60
25877;DHT22;13692;47.480;19.216;2023-07-08T07:48:19;32.20;75.00
25877;DHT22;13692;47.480;19.216;2023-07-08T07:50:47;32.30;71.20
25877;DHT22;13692;47.480;19.216;2023-07-08T07:53:14;32.00;71.10
25877;DHT22;13692;47.480;19.216;2023-07-08T07:55:41;31.90;71.30
25877;DHT22;13692;47.480;19.216;2023-07-08T07:58:08;31.70;71.60
25877;DHT22;13692;47.480;19.216;2023-07-08T08:00:38;31.90;74.60
25877;DHT22;13692;47.480;19.216;2023-07-08T08:03:05;32.40;73.90
25877;DHT22;13692;47.480;19.216;2023-07-08T08:05:32;32.70;71.40
25877;DHT22;13692;47.480;19.216;2023-07-08T08:07:59;32.70;71.80
25877;DHT22;13692;47.480;19.216;2023-07-08T08:10:26;32.40;70.60
25877;DHT22;13692;47.480;19.216;2023-07-08T08:12:53;32.20;67.20
25877;DHT22;13692;47.480;19.216;2023-07-08T08:15:22;31.90;65.50
25877;DHT22;13692;47.480;19.216;2023-07-08T08:17:49;32.10;65.70
25877;DHT22;13692;47.480;19.216;2023-07-08T08:20:20;32.10;65.40
25877;DHT22;13692;47.480;19.216;2023-07-08T08:22:47;32.10;65.20
25877;DHT22;13692;47.480;19.216;2023-07-08T08:25:15;31.70;65.50
25877;DHT22;13692;47.480;19.216;2023-07-08T08:27:42;31.70;64.90
25877;DHT22;13692;47.480;19.216;2023-07-08T08:30:11;31.70;64.40
25877;DHT22;13692;47.480;19.216;2023-07-08T08:32:39;31.70;65.90
25877;DHT22;13692;47.480;19.216;2023-07-08T08:35:06;31.70;63.70
25877;DHT22;13692;47.480;19.216;2023-07-08T08:37:33;31.80;66.30
25877;DHT22;13692;47.480;19.216;2023-07-08T08:40:00;31.90;66.40
25877;DHT22;13692;47.480;19.216;2023-07-08T08:42:40;32.10;66.80
25877;DHT22;13692;47.480;19.216;2023-07-08T08:45:15;32.50;65.00
25877;DHT22;13692;47.480;19.216;2023-07-08T08:47:44;32.40;61.60
25877;DHT22;13692;47.480;19.216;2023-07-08T08:53:01;32.20;64.80
25877;DHT22;13692;47.480;19.216;2023-07-08T08:55:29;32.30;63.70
25877;DHT22;13692;47.480;19.216;2023-07-08T08:58:30;32.10;62.80
25877;DHT22;13692;47.480;19.216;2023-07-08T09:00:58;31.70;64.70
25877;DHT22;13692;47.480;19.216;2023-07-08T09:06:16;31.50;66.50
25877;DHT22;13692;47.480;19.216;2023-07-08T09:08:46;31.50;67.00
25877;DHT22;13692;47.480;19.216;2023-07-08T09:13:47;32.10;64.30
25877;DHT22;13692;47.480;19.216;2023-07-08T09:19:25;31.90;65.70
25877;DHT22;13692;47.480;19.216;2023-07-08T09:24:56;32.40;65.10
25877;DHT22;13692;47.480;19.216;2023-07-08T09:27:25;32.40;64.50
25877;DHT22;13692;47.480;19.216;2023-07-08T09:29:52;32.10;65.30
25877;DHT22;13692;47.480;19.216;2023-07-08T09:32:25;32.30;65.70
25877;DHT22;13692;47.480;19.216;2023-07-08T09:35:04;32.60;64.70
25877;DHT22;13692;47.480;19.216;2023-07-08T09:37:34;32.90;64.50
25877;DHT22;13692;47.480;19.216;2023-07-08T09:40:28;32.80;64.70
25877;DHT22;13692;47.480;19.216;2023-07-08T09:43:11;32.50;65.10
25877;DHT22;13692;47.480;19.216;2023-07-08T09:45:46;32.30;65.40
25877;DHT22;13692;47.480;19.216;2023-07-08T09:48:33;31.70;65.40
25877;DHT22;13692;47.480;19.216;2023-07-08T09:51:00;31.50;64.60
25877;DHT22;13692;47.480;19.216;2023-07-08T09:53:28;31.20;65.10
25877;DHT22;13692;47.480;19.216;2023-07-08T09:56:00;31.30;66.50
25877;DHT22;13692;47.480;19.216;2023-07-08T09:58:39;31.50;63.30
25877;DHT22;13692;47.480;19.216;2023-07-08T10:01:15;31.50;65.50
25877;DHT22;13692;47.480;19.216;2023-07-08T10:03:44;31.30;64.00
25877;DHT22;13692;47.480;19.216;2023-07-08T10:06:25;31.30;62.60
25877;DHT22;13692;47.480;19.216;2023-07-08T10:09:00;31.40;63.30
25877;DHT22;13692;47.480;19.216;2023-07-08T10:11:44;31.30;63.30
25877;DHT22;13692;47.480;19.216;2023-07-08T10:14:20;31.30;65.20
25877;DHT22;13692;47.480;19.216;2023-07-08T10:16:49;31.20;61.90
25877;DHT22;13692;47.480;19.216;2023-07-08T10:19:18;31.10;62.40
25877;DHT22;13692;47.480;19.216;2023-07-08T10:35:40;31.10;64.20
25877;DHT22;13692;47.480;19.216;2023-07-08T10:38:43;31.00;65.60
25877;DHT22;13692;47.480;19.216;2023-07-08T10:41:37;30.60;64.50
25877;DHT22;13692;47.480;19.216;2023-07-08T10:50:16;30.20;63.50
25877;DHT22;13692;47.480;19.216;2023-07-08T11:03:47;30.00;62.80
25877;DHT22;13692;47.480;19.216;2023-07-08T11:09:17;29.80;63.80
25877;DHT22;13692;47.480;19.216;2023-07-08T11:11:53;29.90;65.20
25877;DHT22;13692;47.480;19.216;2023-07-08T11:14:42;30.00;65.80
25877;DHT22;13692;47.480;19.216;2023-07-08T11:17:21;30.00;66.70
25877;DHT22;13692;47.480;19.216;2023-07-08T11:20:26;29.90;67.00
25877;DHT22;13692;47.480;19.216;2023-07-08T11:22:59;29.90;66.80
25877;DHT22;13692;47.480;19.216;2023-07-08T11:25:28;29.90;65.70
25877;DHT22;13692;47.480;19.216;2023-07-08T11:27:59;29.70;63.90
25877;DHT22;13692;47.480;19.216;2023-07-08T11:30:30;29.40;63.90
25877;DHT22;13692;47.480;19.216;2023-07-08T11:33:04;29.40;65.00
25877;DHT22;13692;47.480;19.216;2023-07-08T11:35:35;29.40;65.70
25877;DHT22;13692;47.480;19.216;2023-07-08T11:38:03;29.40;67.40
25877;DHT22;13692;47.480;19.216;2023-07-08T11:40:32;29.20;66.60
25877;DHT22;13692;47.480;19.216;2023-07-08T11:43:05;29.40;66.70
25877;DHT22;13692;47.480;19.216;2023-07-08T11:45:37;29.30;66.90
25877;DHT22;13692;47.480;19.216;2023-07-08T11:48:15;29.30;66.70
25877;DHT22;13692;47.480;19.216;2023-07-08T11:50:45;29.30;66.60
25877;DHT22;13692;47.480;19.216;2023-07-08T11:53:34;29.40;66.60
25877;DHT22;13692;47.480;19.216;2023-07-08T11:59:04;29.10;62.40
25877;DHT22;13692;47.480;19.216;2023-07-08T12:01:39;29.10;65.50
25877;DHT22;13692;47.480;19.216;2023-07-08T12:11:45;29.20;66.70
25877;DHT22;13692;47.480;19.216;2023-07-08T12:14:13;29.20;67.00
25877;DHT22;13692;47.480;19.216;2023-07-08T12:16:41;29.20;66.70
25877;DHT22;13692;47.480;19.216;2023-07-08T12:19:16;29.20;65.20
25877;DHT22;13692;47.480;19.216;2023-07-08T12:21:44;29.20;67.30
25877;DHT22;13692;47.480;19.216;2023-07-08T12:24:13;29.20;65.90
25877;DHT22;13692;47.480;19.216;2023-07-08T12:26:44;29.20;65.40
25877;DHT22;13692;47.480;19.216;2023-07-08T12:29:12;29.20;66.70
25877;DHT22;13692;47.480;19.216;2023-07-08T12:31:42;29.20;66.20
25877;DHT22;13692;47.480;19.216;2023-07-08T12:34:17;29.10;67.70
25877;DHT22;13692;47.480;19.216;2023-07-08T12:36:45;29.00;68.30
25877;DHT22;13692;47.480;19.216;2023-07-08T12:39:16;29.20;68.70
25877;DHT22;13692;47.480;19.216;2023-07-08T12:41:45;29.20;68.70
25877;DHT22;13692;47.480;19.216;2023-07-08T12:44:21;29.30;67.10
25877;DHT22;13692;47.480;19.216;2023-07-08T12:46:53;29.40;68.50
25877;DHT22;13692;47.480;19.216;2023-07-08T12:49:21;29.20;67.40
25877;DHT22;13692;47.480;19.216;2023-07-08T12:51:50;29.20;65.10
25877;DHT22;13692;47.480;19.216;2023-07-08T12:54:17;29.20;64.20
25877;DHT22;13692;47.480;19.216;2023-07-08T12:56:45;29.20;66.70
25877;DHT22;13692;47.480;19.216;2023-07-08T12:59:18;29.10;67.60
25877;DHT22;13692;47.480;19.216;2023-07-08T13:01:46;29.10;68.50
25877;DHT22;13692;47.480;19.216;2023-07-08T13:04:15;29.00;67.80
25877;DHT22;13692;47.480;19.216;2023-07-08T13:06:44;29.00;68.30
25877;DHT22;13692;47.480;19.216;2023-07-08T13:11:46;29.00;68.90
25877;DHT22;13692;47.480;19.216;2023-07-08T13:14:14;29.10;69.20
25877;DHT22;13692;47.480;19.216;2023-07-08T13:16:42;29.10;68.50
25877;DHT22;13692;47.480;19.216;2023-07-08T13:19:12;29.10;68.90
25877;DHT22;13692;47.480;19.216;2023-07-08T13:21:40;29.10;69.40
25877;DHT22;13692;47.480;19.216;2023-07-08T13:24:09;29.00;69.80
25877;DHT22;13692;47.480;19.216;2023-07-08T13:26:45;29.00;67.90
25877;DHT22;13692;47.480;19.216;2023-07-08T13:29:16;29.00;68.10
25877;DHT22;13692;47.480;19.216;2023-07-08T13:31:52;28.90;67.90
25877;DHT22;13692;47.480;19.216;2023-07-08T13:34:22;28.90;67.70
25877;DHT22;13692;47.480;19.216;2023-07-08T13:36:51;28.90;67.90
25877;DHT22;13692;47.480;19.216;2023-07-08T13:39:31;28.80;68.00
25877;DHT22;13692;47.480;19.216;2023-07-08T13:42:00;29.00;68.30
25877;DHT22;13692;47.480;19.216;2023-07-08T13:44:27;28.90;68.50
25877;DHT22;13692;47.480;19.216;2023-07-08T13:46:59;28.90;68.50
25877;DHT22;13692;47.480;19.216;2023-07-08T13:49:39;28.90;68.80
25877;DHT22;13692;47.480;19.216;2023-07-08T13:57:18;29.10;66.10
25877;DHT22;13692;47.480;19.216;2023-07-08T13:59:45;29.10;67.20
25877;DHT22;13692;47.480;19.216;2023-07-08T14:02:24;29.00;65.40
25877;DHT22;13692;47.480;19.216;2023-07-08T14:04:53;28.90;64.30
25877;DHT22;13692;47.480;19.216;2023-07-08T14:07:23;28.80;64.20
25877;DHT22;13692;47.480;19.216;2023-07-08T14:09:51;28.90;65.10
25877;DHT22;13692;47.480;19.216;2023-07-08T14:12:19;28.90;65.90
25877;DHT22;13692;47.480;19.216;2023-07-08T14:14:49;29.00;65.20
25877;DHT22;13692;47.480;19.216;2023-07-08T14:17:26;29.00;64.50
25877;DHT22;13692;47.480;19.216;2023-07-08T14:19:54;29.10;64.30
25877;DHT22;13692;47.480;19.216;2023-07-08T14:22:24;29.10;64.00
25877;DHT22;13692;47.480;19.216;2023-07-08T14:24:52;29.00;65.80
25877;DHT22;13692;47.480;19.216;2023-07-08T14:27:19;28.90;64.80
25877;DHT22;13692;47.480;19.216;2023-07-08T14:29:48;28.90;66.40
25877;DHT22;13692;47.480;19.216;2023-07-08T14:32:19;28.90;67.00
25877;DHT22;13692;47.480;19.216;2023-07-08T14:34:55;28.90;67.40
25877;DHT22;13692;47.480;19.216;2023-07-08T14:37:23;28.90;67.60
25877;DHT22;13692;47.480;19.216;2023-07-08T14:39:50;28.90;68.10
25877;DHT22;13692;47.480;19.216;2023-07-08T14:42:19;28.80;68.50
25877;DHT22;13692;47.480;19.216;2023-07-08T14:44:48;28.90;68.60
25877;DHT22;13692;47.480;19.216;2023-07-08T14:47:18;28.90;68.40
25877;DHT22;13692;47.480;19.216;2023-07-08T14:49:45;28.90;68.30
25877;DHT22;13692;47.480;19.216;2023-07-08T14:52:12;29.00;64.20
25877;DHT22;13692;47.480;19.216;2023-07-08T14:54:40;29.10;68.10
25877;DHT22;13692;47.480;19.216;2023-07-08T14:57:09;29.00;68.40
25877;DHT22;13692;47.480;19.216;2023-07-08T14:59:39;29.10;68.20
25877;DHT22;13692;47.480;19.216;2023-07-08T15:02:19;29.10;65.90
25877;DHT22;13692;47.480;19.216;2023-07-08T15:04:47;29.10;68.70
25877;DHT22;13692;47.480;19.216;2023-07-08T15:07:14;29.00;69.30
25877;DHT22;13692;47.480;19.216;2023-07-08T15:09:41;28.90;68.80
25877;DHT22;13692;47.480;19.216;2023-07-08T15:12:10;29.00;68.90
25877;DHT22;13692;47.480;19.216;2023-07-08T15:14:39;28.90;68.30
25877;DHT22;13692;47.480;19.216;2023-07-08T15:17:16;29.00;66.40
25877;DHT22;13692;47.480;19.216;2023-07-08T15:19:44;28.90;65.80
25877;DHT22;13692;47.480;19.216;2023-07-08T15:22:11;28.90;68.20
25877;DHT22;13692;47.480;19.216;2023-07-08T15:24:38;28.80;70.00
25877;DHT22;13692;47.480;19.216;2023-07-08T15:27:06;28.80;70.50
25877;DHT22;13692;47.480;19.216;2023-07-08T15:29:35;28.80;70.20
25877;DHT22;13692;47.480;19.216;2023-07-08T15:32:02;28.80;69.90
25877;DHT22;13692;47.480;19.216;2023-07-08T15:34:36;28.80;69.70
25877;DHT22;13692;47.480;19.216;2023-07-08T15:37:03;28.90;69.10
25877;DHT22;13692;47.480;19.216;2023-07-08T15:39:30;28.90;69.90
25877;DHT22;13692;47.480;19.216;2023-07-08T15:41:57;28.90;70.10
25877;DHT22;13692;47.480;19.216;2023-07-08T15:44:24;29.00;69.10
25877;DHT22;13692;47.480;19.216;2023-07-08T15:46:51;28.90;69.40
25877;DHT22;13692;47.480;19.216;2023-07-08T15:49:21;28.90;68.40
25877;DHT22;13692;47.480;19.216;2023-07-08T15:51:51;28.80;69.80
25877;DHT22;13692;47.480;19.216;2023-07-08T15:54:19;28.80;68.00
25877;DHT22;13692;47.480;19.216;2023-07-08T15:56:48;28.80;67.90
25877;DHT22;13692;47.480;19.216;2023-07-08T15:59:19;28.80;68.60
25877;DHT22;13692;47.480;19.216;2023-07-08T16:01:48;28.70;68.40
25877;DHT22;13692;47.480;19.216;2023-07-08T16:04:26;28.70;69.50
25877;DHT22;13692;47.480;19.216;2023-07-08T16:06:55;28.70;68.40
25877;DHT22;13692;47.480;19.216;2023-07-08T16:09:22;28.70;68.60
25877;DHT22;13692;47.480;19.216;2023-07-08T16:11:49;28.60;66.20
25877;DHT22;13692;47.480;19.216;2023-07-08T16:14:17;28.70;66.50
25877;DHT22;13692;47.480;19.216;2023-07-08T16:16:44;28.70;68.90
25877;DHT22;13692;47.480;19.216;2023-07-08T16:19:13;28.20;68.50
25877;DHT22;13692;47.480;19.216;2023-07-08T16:21:40;28.60;69.50
25877;DHT22;13692;47.480;19.216;2023-07-08T16:24:07;28.60;68.10
25877;DHT22;13692;47.480;19.216;2023-07-08T16:26:35;28.60;69.10
25877;DHT22;13692;47.480;19.216;2023-07-08T16:29:02;28.60;66.60
25877;DHT22;13692;47.480;19.216;2023-07-08T16:31:30;28.60;66.90
25877;DHT22;13692;47.480;19.216;2023-07-08T16:33:58;28.50;68.40
25877;DHT22;13692;47.480;19.216;2023-07-08T16:36:27;28.50;68.30
25877;DHT22;13692;47.480;19.216;2023-07-08T16:38:55;28.50;67.60
25877;DHT22;13692;47.480;19.216;2023-07-08T16:41:26;28.40;69.10
25877;DHT22;13692;47.480;19.216;2023-07-08T16:43:54;28.40;69.40